Truth Or Consequences Municipal Airport
KTCS : now visible

Airfield :











YOU CAN JOIN US ON...

 
LOGIN :

Register | Disclaimer

   EN    FR    IT 

 









Legend :    VFR   Marginal VFR   IFR   Intensive IFR   Very Intensive IFR
Visi :
Ceiling :
>= 8 km
>= 3000ft
5 to 8 km
1000 to 3000 ft
1500m to 5 km
500 to 1000 ft
800 to 1500m
200 to 500 ft
< 800m
< 200 ft
Symbols :   Thunderstorms  Fog  Heavy snow  Heavy precipitations  Wind > 20 kt







- Airport Elevation : 4853 ft


KTCS - Truth Or Consequences Municipal

CURRENT METAR :
  • 241853Z AUTO VRB04KT 10SM FEW060 21/06 A3002 RMK AO2 SLP109 T02060056

EXPIRED METARs :
  • 241753Z AUTO 05005KT 10SM CLR 18/06 A3004 RMK AO2 SLP118 T01830056 10189 20072 58009
  • 241653Z AUTO 00000KT 10SM CLR 17/05 A3006 RMK AO2 SLP128 T01670050

TAF KTCS
Valid from the 24 at 18:00 until the 25 at 18:00 UTC


241720Z 2418/2518 35007KT P6SM FEW090
FM250200 29006KT P6SM SKC
FM251600 01008KT P6SM SKC
KZAB FIR / North America



MET'MAP, your aeronautical weather chart ! - Copyright ORBIFLY December 2007 - Disclaimer

ORBIFLY MET'MAP TEAM :

Programming & Development : Alexandra Zaïnal
Concept & Development : Baudouin d'Aumeries
Co-Development & Prog : Marc-Olivier Méhu
Technical & hardware support : Manuel Goepfert

Contact : metmap@orbifly.com




SOURCES & CREDITS :

   NOAA       Earth
Advisory